Time;durP1;ratioP1;P1;durP2;ratioP2;P2;SDS_P1;SDS_P2;PMS_P1;PMS_P2;Temp;Humidity;BMP_temperature;BMP_pressure;BME280_temperature;BME280_humidity;BME280_pressure;Samples;Min_cycle;Max_cycle;Signal;HPM_P1;HPM_P2
2021/06/26 00:00:45;;;;;;;11.98;10.77;;;18.00;99.90;;;;;;5071674;28;20209;-61
2021/06/26 00:03:12;;;;;;;11.77;10.60;;;18.00;99.90;;;;;;5071515;28;20588;-62
2021/06/26 00:05:38;;;;;;;11.67;10.57;;;17.90;99.90;;;;;;5071602;28;20212;-61
2021/06/26 00:08:06;;;;;;;11.80;10.60;;;17.90;99.90;;;;;;5071130;28;20638;-61
2021/06/26 00:10:34;;;;;;;11.40;10.30;;;17.90;99.90;;;;;;5071454;28;20582;-61
2021/06/26 00:13:00;;;;;;;11.90;9.73;;;17.90;99.90;;;;;;5070338;28;20561;-62
2021/06/26 00:15:27;;;;;;;10.77;9.68;;;17.90;99.90;;;;;;5071316;28;20220;-61
2021/06/26 00:17:54;;;;;;;14.15;11.30;;;18.00;99.90;;;;;;5071380;28;20209;-62
2021/06/26 00:20:21;;;;;;;11.77;10.03;;;17.90;99.90;;;;;;5071118;28;20212;-61
2021/06/26 00:22:47;;;;;;;16.27;10.38;;;17.90;99.90;;;;;;5071168;28;20212;-61
2021/06/26 00:25:14;;;;;;;11.67;10.17;;;17.90;99.90;;;;;;5070929;28;20205;-61
2021/06/26 00:27:42;;;;;;;10.77;9.70;;;18.00;99.90;;;;;;5070731;28;20216;-61
2021/06/26 00:30:10;;;;;;;12.13;10.93;;;17.50;99.90;;;;;;5071102;28;20208;-61
2021/06/26 00:32:37;;;;;;;13.70;10.75;;;18.00;99.90;;;;;;5071151;28;20213;-62
2021/06/26 00:35:05;;;;;;;13.07;10.40;;;18.10;99.90;;;;;;5070782;28;20591;-62
2021/06/26 00:37:31;;;;;;;12.48;10.52;;;18.10;99.90;;;;;;5070960;28;20232;-63
2021/06/26 00:39:58;;;;;;;12.75;10.57;;;18.10;99.90;;;;;;5070729;28;20228;-63
2021/06/26 00:42:25;;;;;;;11.70;10.70;;;18.20;99.90;;;;;;5071065;28;20216;-63
2021/06/26 00:44:53;;;;;;;11.97;10.77;;;18.20;99.90;;;;;;5070893;28;20224;-63
2021/06/26 00:47:19;;;;;;;11.20;10.03;;;18.30;99.90;;;;;;5071107;28;20266;-62
2021/06/26 00:49:46;;;;;;;11.35;9.93;;;18.30;99.90;;;;;;5070583;28;20232;-62
2021/06/26 00:52:13;;;;;;;11.85;10.65;;;18.30;99.90;;;;;;5070963;28;20644;-62
2021/06/26 00:54:40;;;;;;;12.27;10.98;;;18.30;99.90;;;;;;5070284;28;20223;-62
2021/06/26 00:57:07;;;;;;;11.60;10.40;;;18.30;99.90;;;;;;5070810;28;20205;-62
2021/06/26 00:59:34;;;;;;;11.30;10.10;;;18.30;99.90;;;;;;5070669;28;20255;-63
2021/06/26 01:02:03;;;;;;;12.23;10.30;;;18.20;99.90;;;;;;5070810;28;20592;-63
2021/06/26 01:04:30;;;;;;;15.68;10.95;;;18.20;99.90;;;;;;5070286;28;20240;-62
2021/06/26 01:06:56;;;;;;;14.35;11.02;;;18.20;99.90;;;;;;5070540;28;20262;-62
2021/06/26 01:09:23;;;;;;;22.67;19.73;;;18.20;99.90;;;;;;5070295;28;20224;-63
2021/06/26 01:11:51;;;;;;;12.80;11.45;;;18.20;99.90;;;;;;5070582;28;20201;-62
2021/06/26 01:14:19;;;;;;;11.60;10.48;;;18.20;99.90;;;;;;5070589;28;20232;-62
2021/06/26 01:16:46;;;;;;;15.48;10.45;;;18.20;99.90;;;;;;5070778;28;20204;-62
2021/06/26 01:19:14;;;;;;;11.40;10.30;;;18.10;99.90;;;;;;5070406;28;20205;-62
2021/06/26 01:21:41;;;;;;;11.57;10.38;;;18.20;99.90;;;;;;5070493;28;20212;-62
2021/06/26 01:24:09;;;;;;;13.48;11.50;;;18.20;99.90;;;;;;5072473;28;20221;-62
2021/06/26 01:26:36;;;;;;;11.82;10.63;;;18.20;99.90;;;;;;5074519;28;20205;-62
2021/06/26 01:29:05;;;;;;;12.40;11.10;;;18.30;99.90;;;;;;5074142;28;20294;-62
2021/06/26 01:31:32;;;;;;;15.30;11.15;;;18.30;99.90;;;;;;5074255;28;20563;-62
2021/06/26 01:33:59;;;;;;;14.15;11.60;;;18.40;99.90;;;;;;5074241;28;20236;-62
2021/06/26 01:36:26;;;;;;;11.15;10.05;;;18.30;99.90;;;;;;5074083;28;20228;-62
2021/06/26 01:38:56;;;;;;;13.67;11.10;;;18.30;99.90;;;;;;5074636;28;20205;-62
2021/06/26 01:41:28;;;;;;;16.90;10.50;;;18.30;99.90;;;;;;5074539;28;20210;-62
2021/06/26 01:43:55;;;;;;;11.70;10.60;;;18.30;99.90;;;;;;5074057;28;20232;-62
2021/06/26 01:46:22;;;;;;;11.77;10.55;;;18.30;99.90;;;;;;5074081;28;20212;-62
2021/06/26 01:48:48;;;;;;;13.02;11.25;;;18.30;99.90;;;;;;5073768;28;20252;-62
2021/06/26 01:51:15;;;;;;;14.73;10.90;;;18.20;99.90;;;;;;5074212;28;20213;-62
2021/06/26 01:53:43;;;;;;;14.40;11.20;;;18.20;99.90;;;;;;5073853;28;20221;-62
2021/06/26 01:56:12;;;;;;;13.10;11.23;;;18.20;99.90;;;;;;5073796;28;20201;-62
2021/06/26 01:58:40;;;;;;;14.00;11.27;;;18.20;99.90;;;;;;5073706;28;20745;-62
2021/06/26 02:01:07;;;;;;;14.50;11.80;;;18.20;99.90;;;;;;5073644;28;20200;-62
2021/06/26 02:03:33;;;;;;;12.60;11.30;;;18.20;99.90;;;;;;5096733;22;20229;-59
2021/06/26 02:06:00;;;;;;;13.32;11.15;;;18.20;99.90;;;;;;5073677;28;20694;-60
2021/06/26 02:08:27;;;;;;;11.88;10.65;;;18.20;99.90;;;;;;5073448;28;20596;-59
2021/06/26 02:10:53;;;;;;;13.95;11.55;;;18.20;99.90;;;;;;5073468;28;20236;-60
2021/06/26 02:13:20;;;;;;;12.73;10.97;;;18.10;99.90;;;;;;5073404;28;20882;-59
2021/06/26 02:15:48;;;;;;;13.32;12.02;;;18.10;99.90;;;;;;5073238;28;20675;-60
2021/06/26 02:18:15;;;;;;;13.47;12.07;;;18.10;99.90;;;;;;5073473;28;20205;-59
2021/06/26 02:20:41;;;;;;;13.30;11.82;;;18.10;99.90;;;;;;5073635;28;20209;-60
2021/06/26 02:23:08;;;;;;;14.18;12.10;;;18.10;99.90;;;;;;5073482;28;20262;-60
2021/06/26 02:25:35;;;;;;;13.47;12.10;;;18.20;99.90;;;;;;5073054;28;20217;-59
2021/06/26 02:28:01;;;;;;;13.80;11.65;;;18.30;99.90;;;;;;5073234;28;20209;-60
2021/06/26 02:30:28;;;;;;;12.77;11.57;;;18.30;99.90;;;;;;5073124;28;20220;-60
2021/06/26 02:32:56;;;;;;;13.27;12.00;;;18.40;99.90;;;;;;5073456;28;20209;-59
2021/06/26 02:35:23;;;;;;;14.77;12.23;;;18.40;99.90;;;;;;5072217;28;20233;-60
2021/06/26 02:37:50;;;;;;;14.17;12.77;;;18.50;99.90;;;;;;5073336;28;20201;-59
2021/06/26 02:40:17;;;;;;;13.87;12.43;;;18.50;99.90;;;;;;5073140;28;20629;-60
2021/06/26 02:42:44;;;;;;;15.10;12.47;;;18.60;99.90;;;;;;5073405;28;20211;-60
2021/06/26 02:45:12;;;;;;;15.00;11.27;;;18.60;99.90;;;;;;5072708;28;20229;-60
2021/06/26 02:47:38;;;;;;;15.15;12.05;;;18.70;99.90;;;;;;5072814;28;20208;-60
2021/06/26 02:50:09;;;;;;;13.38;12.00;;;18.70;99.90;;;;;;5073024;28;20236;-60
2021/06/26 02:52:36;;;;;;;11.98;10.77;;;18.70;99.90;;;;;;5072916;28;20212;-60
2021/06/26 02:55:03;;;;;;;12.57;11.27;;;18.70;99.90;;;;;;5072939;28;20235;-59
2021/06/26 02:57:30;;;;;;;12.52;10.95;;;18.60;99.90;;;;;;5073071;28;20211;-60
2021/06/26 02:59:57;;;;;;;15.48;10.77;;;18.60;99.90;;;;;;5072871;28;20675;-60
2021/06/26 03:02:25;;;;;;;13.20;11.80;;;18.60;99.90;;;;;;5073112;28;20201;-60
2021/06/26 03:04:52;;;;;;;15.30;11.90;;;18.60;99.90;;;;;;5073002;28;20336;-59
2021/06/26 03:07:20;;;;;;;13.07;11.60;;;18.60;99.90;;;;;;5072969;28;20208;-59
2021/06/26 03:09:47;;;;;;;15.65;11.75;;;18.60;99.90;;;;;;5073044;28;20217;-59
2021/06/26 03:12:14;;;;;;;12.32;11.07;;;18.60;99.90;;;;;;5072786;28;20696;-59
2021/06/26 03:14:41;;;;;;;12.20;10.93;;;18.60;99.90;;;;;;5072544;28;20228;-60
2021/06/26 03:17:08;;;;;;;13.02;11.73;;;18.60;99.90;;;;;;5072524;28;20200;-59
2021/06/26 03:19:35;;;;;;;12.75;11.45;;;18.60;99.90;;;;;;5072239;28;20216;-60
2021/06/26 03:22:01;;;;;;;13.40;11.27;;;18.60;99.90;;;;;;5072311;28;20209;-59
2021/06/26 03:24:30;;;;;;;13.97;12.30;;;18.60;99.90;;;;;;5071968;28;20229;-59
2021/06/26 03:26:57;;;;;;;13.50;12.20;;;18.60;99.90;;;;;;5072715;28;20610;-60
2021/06/26 03:29:24;;;;;;;12.77;11.48;;;18.50;99.90;;;;;;5071921;28;20221;-59
2021/06/26 03:31:51;;;;;;;13.60;10.93;;;18.50;99.90;;;;;;5071979;28;20291;-59
2021/06/26 03:34:18;;;;;;;14.50;12.48;;;18.50;99.90;;;;;;5071685;28;20236;-59
2021/06/26 03:36:45;;;;;;;13.38;11.98;;;18.50;99.90;;;;;;5072008;28;20233;-60
2021/06/26 03:39:12;;;;;;;17.42;12.00;;;18.50;99.90;;;;;;5071736;28;20229;-59
2021/06/26 03:41:40;;;;;;;15.15;12.15;;;18.50;99.90;;;;;;5072031;28;20212;-59
2021/06/26 03:44:07;;;;;;;13.73;12.30;;;18.50;99.90;;;;;;5071448;28;20730;-59
2021/06/26 03:46:35;;;;;;;13.77;12.05;;;18.40;99.90;;;;;;5071873;28;20569;-59
2021/06/26 03:49:02;;;;;;;13.45;12.05;;;18.40;99.90;;;;;;5071481;28;20689;-59
2021/06/26 03:51:28;;;;;;;14.80;12.07;;;18.40;99.90;;;;;;5072201;28;20256;-59
2021/06/26 03:53:55;;;;;;;13.93;12.02;;;18.40;99.90;;;;;;5071320;28;20236;-59
2021/06/26 03:56:22;;;;;;;12.93;11.73;;;18.40;99.90;;;;;;5071743;28;20208;-60
2021/06/26 03:58:50;;;;;;;12.40;11.20;;;17.90;99.90;;;;;;5071671;28;20201;-60
2021/06/26 04:01:17;;;;;;;12.75;11.45;;;17.90;99.90;;;;;;5071760;28;20205;-59
2021/06/26 04:03:45;;;;;;;14.00;11.93;;;18.30;99.90;;;;;;5071261;28;20236;-59
2021/06/26 04:06:11;;;;;;;15.17;12.27;;;18.30;99.90;;;;;;5071442;28;20259;-60
2021/06/26 04:08:38;;;;;;;13.45;12.00;;;18.30;99.90;;;;;;5071613;28;20282;-59
2021/06/26 04:11:05;;;;;;;13.93;11.85;;;18.30;99.90;;;;;;5071531;28;20213;-59
2021/06/26 04:13:31;;;;;;;17.42;12.23;;;18.30;99.90;;;;;;5071495;28;20244;-59
2021/06/26 04:16:00;;;;;;;15.57;12.17;;;18.30;99.90;;;;;;5071414;28;20233;-59
2021/06/26 04:18:26;;;;;;;15.15;12.18;;;18.20;99.90;;;;;;5071139;28;20212;-59
2021/06/26 04:20:53;;;;;;;14.67;13.20;;;18.30;99.90;;;;;;5071505;28;20200;-59
2021/06/26 04:23:20;;;;;;;13.75;12.25;;;18.30;99.90;;;;;;5071525;28;20204;-59
2021/06/26 04:25:48;;;;;;;15.27;12.95;;;18.20;99.90;;;;;;5071719;28;20205;-60
2021/06/26 04:28:15;;;;;;;15.50;12.55;;;18.30;99.90;;;;;;5071402;28;20201;-60
2021/06/26 04:30:41;;;;;;;14.13;12.55;;;18.30;99.90;;;;;;5071380;28;20224;-60
2021/06/26 04:33:10;;;;;;;15.88;13.20;;;18.30;99.90;;;;;;5071131;28;20211;-60
2021/06/26 04:35:37;;;;;;;14.57;13.15;;;18.40;99.90;;;;;;5070991;28;20243;-60
2021/06/26 04:38:04;;;;;;;17.27;12.90;;;18.40;99.90;;;;;;5071187;28;20209;-60
2021/06/26 04:40:30;;;;;;;15.43;12.80;;;18.50;99.90;;;;;;5071272;28;20201;-60
2021/06/26 04:42:57;;;;;;;14.93;13.18;;;18.60;99.90;;;;;;5071159;28;20216;-60
2021/06/26 04:45:24;;;;;;;16.02;13.80;;;18.70;99.90;;;;;;5070718;28;20229;-60
2021/06/26 04:47:51;;;;;;;14.98;12.63;;;18.90;99.90;;;;;;5070667;28;20209;-60
2021/06/26 04:50:19;;;;;;;14.25;12.55;;;19.00;99.90;;;;;;5070677;28;20228;-60
2021/06/26 04:52:46;;;;;;;14.20;12.80;;;19.10;99.90;;;;;;5071177;28;20239;-60
2021/06/26 04:55:14;;;;;;;14.52;13.05;;;19.30;99.90;;;;;;5070937;28;20515;-60
2021/06/26 04:57:41;;;;;;;14.20;12.73;;;19.40;99.90;;;;;;5071084;28;20695;-60
2021/06/26 05:00:09;;;;;;;16.73;12.05;;;19.70;99.90;;;;;;5077138;28;20228;-60
2021/06/26 05:02:35;;;;;;;13.50;12.13;;;19.90;99.90;;;;;;5077424;28;20209;-60
2021/06/26 05:05:02;;;;;;;13.93;12.30;;;20.10;99.90;;;;;;5077091;28;20239;-60
2021/06/26 05:07:30;;;;;;;14.85;12.50;;;20.10;99.90;;;;;;5077453;28;20205;-60
2021/06/26 05:09:57;;;;;;;13.57;12.18;;;20.30;99.90;;;;;;5076923;28;20228;-60
2021/06/26 05:12:24;;;;;;;14.88;11.55;;;20.40;99.90;;;;;;5077085;28;20212;-60
2021/06/26 05:14:50;;;;;;;14.70;12.20;;;20.70;99.90;;;;;;5076910;28;20315;-60
2021/06/26 05:17:17;;;;;;;12.85;11.55;;;20.80;99.90;;;;;;5077177;28;20212;-60
2021/06/26 05:19:44;;;;;;;13.43;12.07;;;20.80;99.90;;;;;;5077405;28;20204;-60
2021/06/26 05:22:10;;;;;;;13.30;12.00;;;20.80;99.90;;;;;;5077434;28;20591;-60
2021/06/26 05:24:39;;;;;;;13.80;12.40;;;20.70;99.90;;;;;;5076972;28;20239;-60
2021/06/26 05:27:06;;;;;;;14.10;12.70;;;20.70;99.90;;;;;;5077172;28;20211;-60
2021/06/26 05:29:34;;;;;;;13.68;12.30;;;20.60;99.90;;;;;;5076833;28;20599;-61
2021/06/26 05:32:01;;;;;;;15.77;12.05;;;20.60;99.90;;;;;;5077443;28;20208;-60
2021/06/26 05:34:27;;;;;;;13.18;11.80;;;20.60;99.90;;;;;;5077567;28;20228;-60
2021/06/26 05:36:54;;;;;;;13.57;11.95;;;20.50;99.90;;;;;;5077511;28;20702;-60
2021/06/26 05:39:21;;;;;;;13.43;12.13;;;20.50;99.90;;;;;;5077082;28;20209;-59
2021/06/26 05:41:49;;;;;;;12.68;11.48;;;20.60;99.90;;;;;;5077172;28;20208;-60
2021/06/26 05:44:16;;;;;;;14.55;12.05;;;20.80;99.90;;;;;;5076840;28;20746;-60
2021/06/26 05:46:42;;;;;;;12.65;11.43;;;21.80;99.90;;;;;;5077721;28;20205;-60
2021/06/26 05:49:09;;;;;;;13.50;12.18;;;22.50;99.90;;;;;;5077275;28;20204;-60
2021/06/26 05:51:35;;;;;;;12.50;11.25;;;22.80;99.90;;;;;;5077263;28;20216;-60
2021/06/26 05:54:02;;;;;;;12.77;11.55;;;22.80;99.90;;;;;;5076867;28;20708;-60
2021/06/26 05:56:29;;;;;;;12.18;10.90;;;22.60;99.90;;;;;;5077043;28;20208;-60
2021/06/26 05:58:58;;;;;;;12.38;11.02;;;22.40;99.90;;;;;;5076774;28;20219;-60
2021/06/26 06:01:25;;;;;;;12.57;11.40;;;22.30;99.90;;;;;;5077327;28;20196;-59
2021/06/26 06:03:53;;;;;;;16.17;11.77;;;22.50;99.90;;;;;;5076582;28;20761;-60
2021/06/26 06:06:19;;;;;;;12.70;11.40;;;22.70;99.90;;;;;;5076993;28;20300;-60
2021/06/26 06:08:46;;;;;;;13.27;11.88;;;22.90;99.90;;;;;;5077034;28;20556;-60
2021/06/26 06:11:14;;;;;;;11.40;10.20;;;23.20;99.90;;;;;;5072663;28;20231;-60
2021/06/26 06:13:40;;;;;;;11.70;10.45;;;23.40;99.90;;;;;;5073833;28;20232;-61
2021/06/26 06:16:08;;;;;;;13.57;10.68;;;23.40;99.90;;;;;;5074271;28;20204;-60
2021/06/26 06:18:35;;;;;;;12.55;10.57;;;23.20;99.90;;;;;;5074272;28;20201;-60
2021/06/26 06:21:02;;;;;;;14.88;10.77;;;23.00;99.90;;;;;;5074736;28;20205;-60
2021/06/26 06:23:28;;;;;;;12.48;9.60;;;23.10;99.90;;;;;;5074270;28;20229;-60
2021/06/26 06:25:55;;;;;;;12.05;10.80;;;23.20;99.90;;;;;;5073831;28;20220;-60
2021/06/26 06:28:22;;;;;;;13.73;10.55;;;23.40;99.90;;;;;;5073942;28;20232;-60
2021/06/26 06:30:49;;;;;;;14.88;10.00;;;23.70;99.90;;;;;;5073311;28;20717;-63
2021/06/26 06:33:17;;;;;;;10.18;9.27;;;24.10;99.90;;;;;;5073347;28;20233;-61
2021/06/26 06:35:43;;;;;;;11.32;10.07;;;24.60;99.90;;;;;;5073109;28;20688;-63
2021/06/26 06:38:10;;;;;;;12.52;10.73;;;24.90;99.90;;;;;;5072952;28;20205;-61
2021/06/26 06:40:37;;;;;;;11.73;9.20;;;24.90;99.90;;;;;;5073152;28;20205;-63
2021/06/26 06:43:04;;;;;;;10.07;8.52;;;25.10;99.90;;;;;;5073259;28;20288;-61
2021/06/26 06:45:30;;;;;;;9.90;8.77;;;25.30;99.90;;;;;;5072814;28;20671;-62
2021/06/26 06:47:57;;;;;;;12.48;8.20;;;26.70;99.90;;;;;;5072822;28;20205;-62
2021/06/26 06:50:25;;;;;;;17.27;12.68;;;26.90;99.90;;;;;;5072915;28;20228;-62
2021/06/26 06:52:52;;;;;;;10.05;8.70;;;27.50;99.90;;;;;;5072703;28;20208;-60
2021/06/26 06:55:19;;;;;;;9.45;7.32;;;27.80;99.90;;;;;;5073037;28;20228;-62
2021/06/26 06:57:45;;;;;;;8.88;7.93;;;28.20;99.90;;;;;;5072659;28;20205;-62
2021/06/26 07:00:13;;;;;;;7.32;6.63;;;29.00;99.30;;;;;;5072739;28;20209;-63
2021/06/26 07:02:40;;;;;;;8.68;7.80;;;30.00;97.00;;;;;;5072540;28;20595;-63
2021/06/26 07:05:08;;;;;;;8.35;7.65;;;31.70;93.40;;;;;;5072459;28;20236;-62
2021/06/26 07:07:37;;;;;;;9.48;7.80;;;33.30;87.70;;;;;;5072540;28;20207;-63
2021/06/26 07:10:04;;;;;;;8.65;7.82;;;33.80;83.00;;;;;;5072608;28;20227;-62
2021/06/26 07:12:31;;;;;;;8.15;7.38;;;33.30;82.10;;;;;;5072916;28;20220;-63
2021/06/26 07:14:58;;;;;;;9.48;6.82;;;33.00;80.90;;;;;;5072496;28;20236;-63
2021/06/26 07:17:24;;;;;;;6.97;6.35;;;32.40;82.00;;;;;;5072360;28;20204;-61
2021/06/26 07:19:51;;;;;;;8.68;6.93;;;32.60;82.70;;;;;;5072256;28;20585;-61
2021/06/26 07:22:18;;;;;;;8.55;7.22;;;34.50;76.70;;;;;;5072233;28;20232;-61
2021/06/26 07:24:46;;;;;;;9.55;7.88;;;36.10;67.70;;;;;;5072257;28;20630;-63
2021/06/26 07:27:13;;;;;;;7.50;6.38;;;37.30;64.10;;;;;;5072361;28;20208;-63
2021/06/26 07:29:40;;;;;;;8.45;6.72;;;38.40;59.50;;;;;;5072269;28;20205;-63
2021/06/26 07:32:07;;;;;;;7.47;6.78;;;38.90;56.80;;;;;;5072211;28;20225;-63
2021/06/26 07:34:34;;;;;;;11.00;6.80;;;37.80;57.00;;;;;;5071779;28;20228;-62
2021/06/26 07:37:00;;;;;;;9.95;6.47;;;37.20;57.80;;;;;;5072160;28;20212;-62
2021/06/26 07:39:27;;;;;;;7.05;6.07;;;37.80;56.60;;;;;;5071669;28;20668;-62
2021/06/26 07:41:55;;;;;;;7.35;6.47;;;38.40;54.50;;;;;;5071901;28;20211;-65
2021/06/26 07:44:24;;;;;;;9.18;7.53;;;38.60;53.90;;;;;;5071745;28;20252;-62
2021/06/26 07:46:51;;;;;;;7.00;5.30;;;38.60;53.10;;;;;;5071762;28;20209;-64
2021/06/26 07:49:17;;;;;;;6.18;5.57;;;39.40;51.20;;;;;;5072328;28;20220;-63
2021/06/26 07:51:44;;;;;;;6.18;5.68;;;40.10;49.80;;;;;;5071628;28;20708;-63
2021/06/26 07:54:11;;;;;;;5.82;5.18;;;40.50;47.70;;;;;;5071458;28;20227;-64
2021/06/26 07:56:37;;;;;;;5.90;5.40;;;39.90;48.10;;;;;;5071496;28;20208;-63
2021/06/26 07:59:05;;;;;;;6.80;5.90;;;39.20;48.60;;;;;;5071266;28;20552;-62
2021/06/26 08:01:32;;;;;;;7.22;5.82;;;38.80;48.60;;;;;;5071442;28;20211;-62
2021/06/26 08:03:59;;;;;;;5.68;5.10;;;38.20;49.20;;;;;;5094645;22;20229;-61
2021/06/26 08:06:26;;;;;;;6.13;5.20;;;38.30;49.10;;;;;;5071259;28;20243;-62
2021/06/26 08:08:52;;;;;;;6.70;5.35;;;38.50;48.40;;;;;;5071119;28;20676;-61
2021/06/26 08:11:20;;;;;;;5.40;4.90;;;38.00;48.50;;;;;;5071306;28;20235;-61
2021/06/26 08:13:47;;;;;;;5.03;4.60;;;37.70;49.50;;;;;;5071048;28;20264;-62
2021/06/26 08:16:15;;;;;;;6.60;5.45;;;38.00;48.90;;;;;;5070993;28;20209;-61
2021/06/26 08:18:42;;;;;;;5.15;4.63;;;37.30;49.70;;;;;;5071630;28;20216;-61
2021/06/26 08:21:09;;;;;;;5.68;5.13;;;37.10;50.60;;;;;;5071781;28;20257;-61
2021/06/26 08:23:35;;;;;;;7.70;5.63;;;36.90;50.80;;;;;;5071335;28;20201;-60
2021/06/26 08:26:03;;;;;;;5.82;5.28;;;37.00;49.90;;;;;;5071407;28;20207;-61
2021/06/26 08:28:30;;;;;;;7.50;5.70;;;36.80;50.10;;;;;;5071099;28;20204;-61
2021/06/26 08:30:56;;;;;;;5.63;5.13;;;36.40;50.70;;;;;;5070958;28;20583;-60
2021/06/26 08:33:24;;;;;;;7.15;5.30;;;36.20;50.90;;;;;;5070407;28;20201;-61
2021/06/26 08:35:51;;;;;;;6.30;5.72;;;36.20;51.20;;;;;;5071181;28;20200;-61
2021/06/26 08:38:18;;;;;;;6.47;5.50;;;36.00;51.60;;;;;;5070667;28;20209;-61
2021/06/26 08:40:47;;;;;;;5.60;5.10;;;36.10;51.30;;;;;;5070955;28;20197;-60
2021/06/26 08:43:14;;;;;;;5.88;5.22;;;36.50;52.10;;;;;;5070679;28;20583;-60
2021/06/26 08:45:41;;;;;;;7.85;5.00;;;37.10;50.10;;;;;;5070635;28;20662;-59
2021/06/26 08:48:08;;;;;;;5.25;4.78;;;37.10;50.20;;;;;;5070818;28;20213;-59
2021/06/26 08:50:36;;;;;;;5.57;5.07;;;37.00;50.60;;;;;;5070815;28;20217;-59
2021/06/26 08:53:03;;;;;;;5.78;5.28;;;36.70;50.70;;;;;;5070669;28;20204;-60
2021/06/26 08:55:30;;;;;;;7.70;5.18;;;36.50;51.10;;;;;;5070685;28;20240;-60
2021/06/26 08:57:56;;;;;;;7.68;5.32;;;36.00;51.40;;;;;;5070332;28;20204;-60
2021/06/26 09:00:25;;;;;;;6.00;5.22;;;35.70;52.00;;;;;;5070529;28;20220;-60
2021/06/26 09:02:52;;;;;;;5.55;5.05;;;35.30;52.90;;;;;;5070456;28;20641;-60
2021/06/26 09:05:27;;;;;;;7.72;6.10;;;34.40;54.00;;;;;;5070156;28;20244;-60
2021/06/26 09:07:55;;;;;;;6.47;5.90;;;33.10;56.00;;;;;;5070543;28;20201;-59
2021/06/26 09:10:25;;;;;;;5.60;5.07;;;32.10;58.20;;;;;;5070565;28;20581;-59
2021/06/26 09:12:52;;;;;;;6.32;5.72;;;31.40;59.90;;;;;;5070604;28;20220;-59
2021/06/26 09:15:25;;;;;;;6.22;5.63;;;30.70;61.70;;;;;;5070523;28;20227;-59
2021/06/26 09:17:52;;;;;;;6.78;6.18;;;30.30;63.50;;;;;;5070533;28;20205;-60
2021/06/26 09:20:20;;;;;;;7.03;5.43;;;30.10;64.10;;;;;;5070553;28;20208;-59
2021/06/26 09:22:51;;;;;;;7.10;5.35;;;30.10;63.90;;;;;;5070705;28;20281;-60
2021/06/26 09:25:31;;;;;;;7.47;5.68;;;30.30;63.80;;;;;;5070695;28;20282;-60
2021/06/26 09:27:59;;;;;;;7.18;6.22;;;30.20;64.00;;;;;;5070431;28;20216;-60
2021/06/26 09:30:34;;;;;;;6.47;5.85;;;30.00;64.00;;;;;;5070448;28;20204;-59
2021/06/26 09:33:04;;;;;;;6.55;5.82;;;29.70;64.50;;;;;;5070585;28;20208;-59
2021/06/26 09:35:30;;;;;;;7.78;6.00;;;29.40;66.00;;;;;;5070024;28;20236;-60
2021/06/26 09:37:57;;;;;;;6.43;5.72;;;29.50;66.10;;;;;;5070505;28;20250;-60
2021/06/26 09:40:29;;;;;;;6.88;6.20;;;29.90;65.70;;;;;;5070329;28;20240;-60
2021/06/26 09:42:56;;;;;;;5.80;5.35;;;30.20;65.50;;;;;;5070536;28;20208;-62
2021/06/26 09:45:23;;;;;;;6.85;6.03;;;30.20;65.10;;;;;;5072451;28;20243;-58
2021/06/26 09:47:50;;;;;;;6.97;6.32;;;30.10;64.60;;;;;;5073679;28;20296;-59
2021/06/26 09:50:19;;;;;;;6.47;5.88;;;30.00;64.60;;;;;;5074159;28;20227;-59
2021/06/26 09:52:48;;;;;;;6.85;6.15;;;29.90;64.40;;;;;;5074040;28;20257;-59
2021/06/26 09:55:20;;;;;;;6.88;6.30;;;30.00;65.10;;;;;;5073644;28;20225;-59
2021/06/26 09:57:49;;;;;;;6.75;5.88;;;30.20;64.60;;;;;;5073735;28;20201;-59
2021/06/26 10:00:18;;;;;;;7.05;6.28;;;30.20;64.60;;;;;;5073694;28;20201;-59
2021/06/26 10:02:45;;;;;;;6.50;5.90;;;30.20;64.60;;;;;;5073260;28;20204;-59
2021/06/26 10:05:13;;;;;;;6.53;5.60;;;30.20;64.60;;;;;;5073335;28;20247;-59
2021/06/26 10:07:41;;;;;;;6.68;6.07;;;30.10;65.70;;;;;;5073648;28;20201;-62
2021/06/26 10:10:11;;;;;;;8.27;6.07;;;30.00;66.40;;;;;;5073645;28;20236;-61
2021/06/26 10:12:38;;;;;;;7.30;6.32;;;29.80;65.90;;;;;;5073116;28;20229;-61
2021/06/26 10:15:08;;;;;;;6.30;5.70;;;29.90;65.90;;;;;;5072643;28;20221;-61
2021/06/26 10:17:35;;;;;;;6.15;5.53;;;30.30;64.70;;;;;;5064965;28;20282;-62
2021/06/26 10:20:03;;;;;;;5.85;5.28;;;30.60;63.90;;;;;;5053103;28;20267;-61
2021/06/26 10:22:30;;;;;;;6.88;5.78;;;30.80;63.80;;;;;;5052865;28;20297;-61
2021/06/26 10:24:58;;;;;;;6.07;5.50;;;31.00;63.30;;;;;;5053306;28;20226;-61
2021/06/26 10:27:24;;;;;;;6.57;5.78;;;31.20;62.80;;;;;;5052969;28;20579;-62
2021/06/26 10:29:51;;;;;;;6.40;5.80;;;31.20;62.30;;;;;;5052807;28;20673;-62
2021/06/26 10:32:20;;;;;;;6.05;4.80;;;30.80;63.20;;;;;;5053315;28;20237;-62
2021/06/26 10:34:49;;;;;;;5.18;4.72;;;30.20;64.40;;;;;;5053198;28;20226;-64
2021/06/26 10:37:17;;;;;;;5.47;4.65;;;29.90;63.50;;;;;;5053383;28;20208;-63
2021/06/26 10:39:44;;;;;;;5.60;5.07;;;29.70;64.10;;;;;;5052871;28;20217;-63
2021/06/26 10:42:14;;;;;;;5.82;5.22;;;29.60;65.40;;;;;;5052589;28;20202;-64
2021/06/26 10:44:46;;;;;;;6.57;5.20;;;29.50;66.80;;;;;;5052995;28;20263;-63
2021/06/26 10:47:13;;;;;;;5.25;4.75;;;29.30;66.80;;;;;;5052513;28;20223;-63
2021/06/26 10:49:42;;;;;;;5.45;4.95;;;29.10;67.70;;;;;;5052060;28;20586;-64
2021/06/26 10:52:14;;;;;;;6.32;5.38;;;28.80;68.10;;;;;;5052713;28;20614;-65
2021/06/26 10:54:52;;;;;;;6.05;5.55;;;28.50;69.40;;;;;;5053001;28;20229;-64
2021/06/26 10:57:19;;;;;;;5.35;4.85;;;28.40;70.10;;;;;;5051902;28;20673;-63
2021/06/26 10:59:59;;;;;;;6.32;5.50;;;28.40;70.40;;;;;;5052273;28;20205;-62
2021/06/26 11:02:39;;;;;;;7.18;5.47;;;28.70;69.60;;;;;;5052227;28;20631;-64
2021/06/26 11:05:08;;;;;;;6.97;5.25;;;28.90;69.30;;;;;;5051942;28;20662;-63
2021/06/26 11:07:35;;;;;;;11.32;5.50;;;29.40;68.10;;;;;;5052425;28;20212;-62
2021/06/26 11:10:07;;;;;;;8.50;5.90;;;29.80;66.80;;;;;;5052476;28;20208;-63
2021/06/26 11:12:39;;;;;;;5.18;4.72;;;29.90;66.70;;;;;;5052208;28;20709;-63
2021/06/26 11:15:07;;;;;;;9.48;5.70;;;30.00;66.50;;;;;;5052029;28;20236;-63
2021/06/26 11:17:38;;;;;;;5.68;5.13;;;30.20;66.40;;;;;;5052127;28;20210;-62
2021/06/26 11:20:09;;;;;;;5.22;4.65;;;30.10;65.40;;;;;;5052324;28;20210;-59
2021/06/26 11:22:36;;;;;;;5.20;4.80;;;30.00;65.60;;;;;;5052237;28;20559;-60
2021/06/26 11:25:03;;;;;;;6.25;5.15;;;29.90;66.40;;;;;;5051591;28;20226;-61
2021/06/26 11:27:30;;;;;;;8.25;5.50;;;29.80;67.70;;;;;;5049322;28;20216;-61
2021/06/26 11:30:01;;;;;;;6.55;4.80;;;29.80;67.50;;;;;;5051070;28;20259;-61
2021/06/26 11:32:30;;;;;;;5.00;4.60;;;29.90;66.40;;;;;;5051701;28;20312;-61
2021/06/26 11:34:58;;;;;;;5.15;4.75;;;29.80;66.50;;;;;;5051932;28;20225;-61
2021/06/26 11:37:33;;;;;;;6.28;5.10;;;29.80;66.60;;;;;;5051892;28;20209;-63
2021/06/26 11:40:00;;;;;;;5.47;4.90;;;29.80;66.50;;;;;;5051281;28;20259;-62
2021/06/26 11:42:27;;;;;;;5.18;4.47;;;30.00;66.50;;;;;;5051669;28;20197;-64
2021/06/26 11:44:54;;;;;;;6.18;4.40;;;30.20;66.10;;;;;;5050814;28;20276;-62
2021/06/26 11:47:26;;;;;;;5.78;4.65;;;30.30;66.50;;;;;;5051355;28;20587;-62
2021/06/26 11:49:52;;;;;;;5.22;4.78;;;30.40;65.70;;;;;;5051546;28;20255;-62
2021/06/26 11:52:19;;;;;;;4.88;4.47;;;30.50;64.80;;;;;;5051610;28;20232;-60
2021/06/26 11:54:47;;;;;;;5.35;4.70;;;30.60;64.30;;;;;;5051496;28;20233;-60
2021/06/26 11:57:14;;;;;;;6.03;4.45;;;30.60;64.50;;;;;;5051219;28;20209;-59
2021/06/26 11:59:45;;;;;;;4.90;4.50;;;30.60;64.30;;;;;;5051028;28;20252;-60
2021/06/26 12:02:14;;;;;;;4.90;4.50;;;30.30;64.40;;;;;;5050664;28;20208;-60
2021/06/26 12:04:41;;;;;;;5.10;4.70;;;30.00;65.20;;;;;;5050780;28;20238;-60
2021/06/26 12:07:08;;;;;;;5.35;4.85;;;29.70;66.20;;;;;;5051109;28;20205;-60
2021/06/26 12:09:36;;;;;;;5.60;5.10;;;29.50;67.00;;;;;;5050602;28;20543;-60
2021/06/26 12:12:05;;;;;;;7.78;4.80;;;29.30;67.50;;;;;;5051259;28;20687;-60
2021/06/26 12:14:33;;;;;;;5.25;4.70;;;29.30;67.90;;;;;;5051084;28;20228;-59
2021/06/26 12:17:05;;;;;;;5.00;4.60;;;29.20;67.70;;;;;;5051182;28;20212;-61
2021/06/26 12:19:33;;;;;;;5.03;4.53;;;29.10;67.20;;;;;;5051163;28;20209;-59
2021/06/26 12:22:01;;;;;;;4.57;4.18;;;29.00;67.70;;;;;;5051446;28;20205;-59
2021/06/26 12:24:29;;;;;;;4.43;3.95;;;28.90;67.80;;;;;;5050314;28;20236;-60
2021/06/26 12:27:12;;;;;;;4.82;3.78;;;29.00;66.90;;;;;;5050673;28;20214;-60
2021/06/26 12:29:42;;;;;;;4.80;3.90;;;29.10;65.20;;;;;;5051117;28;20353;-61
2021/06/26 12:32:09;;;;;;;4.05;3.65;;;29.30;64.80;;;;;;5051183;28;20221;-59
2021/06/26 12:34:46;;;;;;;4.03;3.45;;;29.60;63.10;;;;;;5050892;28;20712;-59
2021/06/26 12:37:13;;;;;;;4.05;3.67;;;29.90;61.60;;;;;;5051387;28;20212;-60